createdAt,value
2023-02-04T00:00:23.245Z,80.48
2023-02-04T00:03:09.081Z,80.72
2023-02-04T00:05:54.975Z,80.38
2023-02-04T00:08:40.462Z,80.60
2023-02-04T00:11:25.947Z,80.84
2023-02-04T00:14:11.517Z,81.15
2023-02-04T00:16:56.682Z,80.84
2023-02-04T00:19:42.506Z,81.39
2023-02-04T00:22:29.159Z,81.57
2023-02-04T00:25:15.263Z,81.77
2023-02-04T00:28:01.064Z,81.14
2023-02-04T00:30:47.522Z,82.44
2023-02-04T00:33:33.267Z,81.96
2023-02-04T00:36:18.983Z,82.09
2023-02-04T00:39:04.377Z,82.03
2023-02-04T00:41:49.822Z,82.02
2023-02-04T00:44:36.489Z,82.05
2023-02-04T00:47:21.883Z,81.93
2023-02-04T00:50:08.591Z,82.64
2023-02-04T00:52:53.917Z,82.73
2023-02-04T00:55:39.245Z,81.96
2023-02-04T00:58:24.817Z,82.71
2023-02-04T01:01:10.231Z,82.83
2023-02-04T01:03:56.410Z,82.86
2023-02-04T01:06:42.433Z,82.36
2023-02-04T01:09:28.465Z,82.88
2023-02-04T01:12:14.070Z,83.00
2023-02-04T01:14:59.630Z,82.67
2023-02-04T01:17:45.199Z,82.84
2023-02-04T01:20:32.105Z,82.87
2023-02-04T01:23:17.910Z,82.78
2023-02-04T01:26:03.738Z,82.84
2023-02-04T01:28:49.736Z,82.87
2023-02-04T01:31:35.803Z,83.08
2023-02-04T01:34:21.787Z,82.89
2023-02-04T01:37:07.645Z,83.16
2023-02-04T01:39:53.060Z,83.27
2023-02-04T01:42:39.345Z,83.47
2023-02-04T01:45:26.665Z,82.76
2023-02-04T01:48:14.214Z,83.48
2023-02-04T01:51:06.292Z,83.56
2023-02-04T01:53:51.703Z,83.48
2023-02-04T01:56:37.148Z,83.38
2023-02-04T01:59:23.307Z,83.35
2023-02-04T02:02:45.073Z,83.32
2023-02-04T02:05:40.236Z,83.66
2023-02-04T02:08:25.684Z,83.57
2023-02-04T02:11:11.618Z,83.72
2023-02-04T02:13:57.164Z,83.75
2023-02-04T02:16:42.897Z,83.52
2023-02-04T02:19:36.024Z,83.60
2023-02-04T02:22:33.327Z,83.42
2023-02-04T02:25:18.940Z,83.40
2023-02-04T02:28:09.281Z,83.31
2023-02-04T02:30:55.266Z,83.28
2023-02-04T02:33:40.948Z,83.54
2023-02-04T02:36:26.480Z,83.27
2023-02-04T02:39:12.112Z,83.58
2023-02-04T02:41:58.655Z,83.01
2023-02-04T02:44:47.001Z,83.15
2023-02-04T02:47:32.860Z,83.13
2023-02-04T02:50:23.402Z,83.29
2023-02-04T02:53:21.121Z,83.44
2023-02-04T02:56:09.535Z,83.13
2023-02-04T02:58:55.174Z,83.56
2023-02-04T03:01:42.101Z,83.75
2023-02-04T03:04:31.849Z,83.73
2023-02-04T03:07:19.521Z,83.20
2023-02-04T03:10:05.590Z,83.89
2023-02-04T03:12:51.131Z,83.71
2023-02-04T03:15:37.192Z,83.37
2023-02-04T03:18:23.644Z,83.32
2023-02-04T03:21:09.065Z,83.04
2023-02-04T03:23:56.832Z,83.23
2023-02-04T03:26:42.557Z,83.26
2023-02-04T03:29:29.813Z,83.13
2023-02-04T03:32:16.408Z,83.01
2023-02-04T03:35:01.954Z,82.82
2023-02-04T03:37:47.688Z,82.79
2023-02-04T03:40:33.390Z,82.58
2023-02-04T03:43:19.332Z,82.80
2023-02-04T03:46:04.990Z,82.62
2023-02-04T03:48:50.612Z,82.70
2023-02-04T03:51:36.251Z,82.97
2023-02-04T03:54:21.958Z,83.11
2023-02-04T03:57:07.694Z,83.16
2023-02-04T03:59:53.132Z,82.62
2023-02-04T04:02:39.799Z,82.68
2023-02-04T04:05:26.541Z,82.24
2023-02-04T04:08:11.829Z,82.53
2023-02-04T04:10:57.185Z,83.07
2023-02-04T04:13:42.722Z,82.67
2023-02-04T04:16:29.032Z,82.70
2023-02-04T04:19:14.583Z,82.83
2023-02-04T04:21:59.897Z,82.87
2023-02-04T04:24:45.491Z,82.17
2023-02-04T04:27:31.437Z,82.77
2023-02-04T04:30:17.216Z,82.48
2023-02-04T04:33:02.981Z,82.33
2023-02-04T04:35:48.371Z,82.30
2023-02-04T04:38:33.868Z,81.81
2023-02-04T04:41:19.518Z,81.76
2023-02-04T04:44:05.183Z,81.81
2023-02-04T04:46:50.586Z,81.74
2023-02-04T04:49:36.054Z,81.67
2023-02-04T04:52:21.356Z,82.33
2023-02-04T04:55:08.601Z,82.13
2023-02-04T04:57:53.654Z,81.79
2023-02-04T05:00:39.373Z,81.89
2023-02-04T05:03:24.835Z,81.64
2023-02-04T05:06:10.995Z,82.14
2023-02-04T05:08:56.442Z,82.14
2023-02-04T05:11:42.001Z,81.88
2023-02-04T05:14:27.368Z,81.64
2023-02-04T05:17:13.055Z,81.82
2023-02-04T05:19:59.237Z,82.23
2023-02-04T05:22:45.060Z,81.91
2023-02-04T05:25:30.332Z,81.14
2023-02-04T05:28:15.783Z,81.93
2023-02-04T05:31:01.115Z,81.51
2023-02-04T05:33:46.626Z,81.22
2023-02-04T05:36:32.145Z,80.98
2023-02-04T05:39:29.023Z,80.26
2023-02-04T05:42:15.255Z,79.90
2023-02-04T05:45:00.965Z,79.93
2023-02-04T05:47:46.472Z,79.50
2023-02-04T05:50:32.359Z,79.98
2023-02-04T05:53:31.201Z,79.71
2023-02-04T05:56:26.901Z,80.45
2023-02-04T05:59:21.291Z,80.74
2023-02-04T06:02:06.806Z,81.71
2023-02-04T06:04:52.299Z,81.62
2023-02-04T06:07:37.804Z,81.51
2023-02-04T06:10:23.305Z,80.74
2023-02-04T06:13:08.618Z,80.60
2023-02-04T06:15:54.083Z,80.99
2023-02-04T06:18:39.635Z,80.08
2023-02-04T06:21:25.476Z,81.13
2023-02-04T06:24:11.375Z,80.53
2023-02-04T06:26:56.631Z,80.40
2023-02-04T06:29:42.201Z,80.39
2023-02-04T06:32:27.780Z,80.35
2023-02-04T06:35:15.530Z,80.88
2023-02-04T06:38:01.619Z,80.44
2023-02-04T06:40:53.695Z,80.58
2023-02-04T06:43:39.336Z,81.32
2023-02-04T06:46:24.833Z,80.68
2023-02-04T06:49:10.543Z,82.13
2023-02-04T06:51:55.933Z,82.04
2023-02-04T06:54:41.941Z,82.04
2023-02-04T06:57:27.797Z,82.40
2023-02-04T07:00:13.654Z,82.57
2023-02-04T07:02:59.769Z,82.74
2023-02-04T07:05:45.348Z,82.79
2023-02-04T07:08:34.105Z,82.60
2023-02-04T07:11:20.059Z,81.32
2023-02-04T07:14:05.536Z,81.36
2023-02-04T07:16:51.153Z,80.88
2023-02-04T07:19:37.043Z,80.54
2023-02-04T07:22:23.026Z,80.85
2023-02-04T07:25:10.461Z,80.30
2023-02-04T07:27:56.430Z,80.16
2023-02-04T07:30:41.871Z,80.03
2023-02-04T07:33:27.955Z,80.01
2023-02-04T07:36:15.216Z,80.06
2023-02-04T07:39:00.721Z,79.74
2023-02-04T07:41:46.551Z,80.35
2023-02-04T07:44:39.334Z,80.09
2023-02-04T07:47:25.781Z,80.26
2023-02-04T07:50:12.363Z,80.74
2023-02-04T07:52:57.805Z,79.95
2023-02-04T07:55:43.723Z,80.36
2023-02-04T07:58:29.426Z,80.42
2023-02-04T08:01:15.135Z,80.25
2023-02-04T08:04:00.771Z,80.53
2023-02-04T08:06:46.561Z,81.01
2023-02-04T08:09:31.958Z,81.49
2023-02-04T08:12:17.447Z,80.80
2023-02-04T08:15:04.056Z,80.12
2023-02-04T08:17:49.581Z,80.48
2023-02-04T08:20:35.337Z,80.95
2023-02-04T08:23:20.866Z,80.35
2023-02-04T08:26:06.514Z,80.99
2023-02-04T08:28:52.011Z,80.58
2023-02-04T08:31:38.127Z,81.53
2023-02-04T08:34:23.726Z,81.54
2023-02-04T08:37:09.446Z,80.69
2023-02-04T08:39:55.930Z,80.01
2023-02-04T08:42:41.346Z,80.15
2023-02-04T08:45:26.690Z,79.60
2023-02-04T08:48:12.580Z,79.47
2023-02-04T08:50:57.944Z,79.40
2023-02-04T08:53:44.572Z,78.74
2023-02-04T08:56:31.151Z,77.90
2023-02-04T08:59:17.387Z,78.04
2023-02-04T09:02:03.541Z,77.80
2023-02-04T09:04:49.632Z,76.79
2023-02-04T09:07:35.445Z,77.66
2023-02-04T09:10:21.550Z,76.33
2023-02-04T09:13:09.189Z,77.02
2023-02-04T09:15:57.577Z,76.66
2023-02-04T09:18:45.182Z,76.91
2023-02-04T09:21:32.080Z,76.65
2023-02-04T09:24:18.746Z,75.98
2023-02-04T09:27:04.179Z,76.22
2023-02-04T09:29:50.075Z,76.59
2023-02-04T09:32:35.954Z,77.06
2023-02-04T09:35:21.397Z,76.95
2023-02-04T09:38:06.987Z,77.45
2023-02-04T09:41:17.390Z,77.93
2023-02-04T09:44:05.357Z,76.88
2023-02-04T09:46:54.004Z,76.43
2023-02-04T09:49:39.462Z,76.19
2023-02-04T09:52:27.405Z,76.77
2023-02-04T09:55:40.717Z,77.51
2023-02-04T09:58:33.471Z,76.31
2023-02-04T10:01:31.139Z,75.21
2023-02-04T10:04:17.411Z,75.82
2023-02-04T10:07:04.058Z,74.29
2023-02-04T10:09:50.358Z,75.68
2023-02-04T10:12:36.866Z,75.19
2023-02-04T10:15:30.706Z,75.67
2023-02-04T10:18:26.500Z,75.01
2023-02-04T10:21:24.468Z,75.15
2023-02-04T10:24:30.788Z,74.95
2023-02-04T10:27:16.570Z,75.29
2023-02-04T10:30:02.569Z,75.69
2023-02-04T10:32:49.177Z,75.91
2023-02-04T10:35:50.073Z,75.50
2023-02-04T10:38:37.363Z,75.55
2023-02-04T10:41:26.894Z,75.24
2023-02-04T10:44:14.265Z,75.33
2023-02-04T10:47:05.937Z,75.66
2023-02-04T10:50:06.363Z,76.42
2023-02-04T10:53:17.143Z,75.65
2023-02-04T10:56:03.191Z,75.04
2023-02-04T10:58:49.607Z,74.60
2023-02-04T11:01:35.159Z,75.81
2023-02-04T11:04:21.129Z,76.79
2023-02-04T11:07:13.446Z,77.41
2023-02-04T11:09:59.127Z,77.44
2023-02-04T11:12:53.759Z,77.56
2023-02-04T11:15:42.831Z,77.63
2023-02-04T11:18:30.286Z,77.96
2023-02-04T11:21:33.524Z,77.67
2023-02-04T11:24:25.738Z,77.82
2023-02-04T11:27:20.570Z,78.35
2023-02-04T11:30:19.302Z,77.16
2023-02-04T11:33:07.078Z,76.86
2023-02-04T11:36:06.985Z,76.71
2023-02-04T11:38:54.482Z,76.77
2023-02-04T11:41:45.952Z,77.48
2023-02-04T11:44:33.823Z,76.23
2023-02-04T11:47:22.025Z,76.19
2023-02-04T11:50:25.206Z,77.04
2023-02-04T11:53:12.255Z,76.92
2023-02-04T11:55:58.768Z,76.83
2023-02-04T11:58:44.163Z,75.79
2023-02-04T12:01:34.377Z,76.26
2023-02-04T12:04:25.231Z,74.98
2023-02-04T12:07:12.921Z,75.03
2023-02-04T12:10:14.356Z,72.47
2023-02-04T12:13:25.076Z,69.68
2023-02-04T12:16:12.304Z,65.59
2023-02-04T12:19:02.719Z,64.81
2023-02-04T12:22:09.815Z,64.41
2023-02-04T12:24:56.208Z,63.67
2023-02-04T12:27:44.463Z,63.87
2023-02-04T12:30:30.230Z,63.96
2023-02-04T12:33:28.854Z,62.28
2023-02-04T12:36:19.485Z,61.87
2023-02-04T12:39:06.974Z,62.48
2023-02-04T12:41:53.555Z,61.88
2023-02-04T12:44:38.940Z,61.80
2023-02-04T12:47:24.601Z,60.70
2023-02-04T12:50:14.093Z,60.87
2023-02-04T12:53:00.047Z,59.53
2023-02-04T12:55:45.809Z,59.29
2023-02-04T12:58:31.406Z,59.62
2023-02-04T13:01:17.016Z,59.46
2023-02-04T13:04:02.391Z,59.89
2023-02-04T13:06:47.906Z,60.84
2023-02-04T13:09:34.780Z,60.94
2023-02-04T13:12:20.541Z,61.08
2023-02-04T13:15:06.746Z,59.73
2023-02-04T13:17:52.278Z,60.07
2023-02-04T13:20:37.847Z,59.54
2023-02-04T13:23:24.142Z,58.50
2023-02-04T13:26:10.580Z,58.38
2023-02-04T13:28:56.473Z,59.60
2023-02-04T13:31:42.672Z,59.88
2023-02-04T13:34:28.144Z,60.05
2023-02-04T13:37:14.331Z,60.77
2023-02-04T13:40:00.242Z,60.63
2023-02-04T13:42:48.013Z,59.78
2023-02-04T13:45:33.864Z,60.05
2023-02-04T13:48:19.722Z,59.89
2023-02-04T13:51:06.682Z,60.39
2023-02-04T13:53:52.689Z,60.46
2023-02-04T13:56:38.380Z,60.53
2023-02-04T13:59:24.101Z,60.71
2023-02-04T14:02:09.975Z,60.16
2023-02-04T14:04:57.875Z,61.19
2023-02-04T14:08:04.719Z,61.31
2023-02-04T14:10:53.319Z,61.41
2023-02-04T14:13:38.979Z,61.49
2023-02-04T14:16:24.750Z,60.48
2023-02-04T14:19:10.340Z,59.98
2023-02-04T14:22:00.504Z,60.18
2023-02-04T14:24:47.716Z,60.18
2023-02-04T14:27:35.426Z,61.46
2023-02-04T14:30:30.077Z,60.47
2023-02-04T14:33:18.155Z,59.41
2023-02-04T14:36:03.894Z,59.10
2023-02-04T14:38:50.184Z,60.49
2023-02-04T14:41:37.787Z,59.83
2023-02-04T14:44:23.323Z,60.40
2023-02-04T14:47:08.454Z,61.19
2023-02-04T14:49:53.957Z,61.17
2023-02-04T14:52:39.681Z,62.19
2023-02-04T14:55:26.573Z,63.13
2023-02-04T14:58:13.741Z,63.88
2023-02-04T15:01:01.794Z,67.07
2023-02-04T15:03:51.440Z,70.55
2023-02-04T15:06:36.683Z,72.02
2023-02-04T15:09:22.044Z,73.35
2023-02-04T15:12:07.765Z,72.43
2023-02-04T15:14:55.639Z,73.54
2023-02-04T15:17:41.313Z,72.29
2023-02-04T15:20:26.776Z,71.95
2023-02-04T15:23:13.154Z,69.05
2023-02-04T15:25:58.768Z,70.15
2023-02-04T15:28:44.778Z,69.42
2023-02-04T15:31:30.724Z,68.76
2023-02-04T15:34:17.736Z,68.30
2023-02-04T15:37:03.415Z,68.09
2023-02-04T15:39:49.584Z,68.40
2023-02-04T15:42:36.742Z,67.33
2023-02-04T15:45:22.290Z,68.38
2023-02-04T15:48:11.435Z,67.20
2023-02-04T15:50:57.583Z,66.75
2023-02-04T15:53:43.202Z,66.97
2023-02-04T15:56:29.374Z,65.77
2023-02-04T15:59:16.022Z,66.86
2023-02-04T16:02:01.810Z,66.29
2023-02-04T16:04:49.351Z,65.93
2023-02-04T16:07:35.187Z,65.95
2023-02-04T16:10:20.769Z,65.61
2023-02-04T16:13:06.340Z,65.43
2023-02-04T16:15:52.072Z,64.44
2023-02-04T16:18:37.600Z,64.09
2023-02-04T16:21:23.443Z,64.84
2023-02-04T16:24:09.384Z,64.30
2023-02-04T16:26:54.722Z,62.58
2023-02-04T16:29:41.465Z,63.15
2023-02-04T16:32:27.602Z,61.96
2023-02-04T16:35:14.877Z,62.08
2023-02-04T16:38:02.548Z,63.39
2023-02-04T16:40:50.856Z,63.44
2023-02-04T16:43:36.476Z,64.25
2023-02-04T16:46:30.201Z,64.08
2023-02-04T16:49:17.702Z,64.76
2023-02-04T16:52:05.232Z,65.01
2023-02-04T16:54:50.547Z,64.85
2023-02-04T16:57:36.030Z,64.79
2023-02-04T17:00:21.683Z,63.65
2023-02-04T17:03:09.766Z,64.28
2023-02-04T17:05:55.769Z,64.64
2023-02-04T17:08:51.375Z,63.87
2023-02-04T17:11:37.945Z,64.58
2023-02-04T17:14:26.516Z,64.29
2023-02-04T17:17:16.548Z,64.24
2023-02-04T17:20:06.822Z,63.29
2023-02-04T17:22:53.590Z,65.00
2023-02-04T17:25:41.764Z,64.92
2023-02-04T17:28:27.454Z,64.32
2023-02-04T17:31:13.421Z,63.61
2023-02-04T17:33:59.674Z,63.88
2023-02-04T17:36:45.900Z,63.37
2023-02-04T17:39:31.651Z,62.62
2023-02-04T17:42:17.231Z,62.45
2023-02-04T17:45:03.771Z,62.75
2023-02-04T17:47:51.548Z,62.87
2023-02-04T17:50:45.151Z,63.68
2023-02-04T17:53:31.881Z,64.25
2023-02-04T17:56:17.791Z,64.57
2023-02-04T17:59:03.322Z,64.57
2023-02-04T18:01:50.236Z,64.71
2023-02-04T18:04:39.952Z,65.69
2023-02-04T18:07:27.210Z,65.32
2023-02-04T18:10:25.619Z,66.00
2023-02-04T18:13:20.545Z,65.49
2023-02-04T18:16:34.716Z,64.69
2023-02-04T18:19:28.030Z,63.67
2023-02-04T18:22:16.885Z,64.23
2023-02-04T18:25:14.100Z,64.30
2023-02-04T18:28:13.838Z,64.35
2023-02-04T18:31:01.131Z,63.68
2023-02-04T18:33:48.785Z,64.66
2023-02-04T18:36:34.570Z,64.14
2023-02-04T18:39:26.091Z,64.56
2023-02-04T18:42:22.494Z,64.54
2023-02-04T18:45:24.211Z,64.69
2023-02-04T18:48:19.460Z,65.00
2023-02-04T18:51:22.226Z,65.03
2023-02-04T18:54:29.673Z,65.53
2023-02-04T18:57:29.245Z,64.35
2023-02-04T19:00:34.664Z,66.04
2023-02-04T19:03:27.635Z,65.68
2023-02-04T19:06:29.632Z,65.65
2023-02-04T19:09:28.209Z,65.52
2023-02-04T19:12:22.281Z,65.29
2023-02-04T19:15:30.840Z,65.71
2023-02-04T19:18:27.032Z,65.55
2023-02-04T19:21:28.515Z,64.76
2023-02-04T19:24:19.931Z,66.04
2023-02-04T19:27:32.019Z,65.17
2023-02-04T19:30:26.972Z,65.73
2023-02-04T19:33:43.525Z,65.12
2023-02-04T19:36:37.838Z,65.05
2023-02-04T19:39:40.392Z,64.13
2023-02-04T19:42:34.138Z,65.11
2023-02-04T19:45:22.804Z,65.35
2023-02-04T19:48:35.839Z,64.36
2023-02-04T19:51:27.980Z,65.08
2023-02-04T19:54:26.116Z,64.18
2023-02-04T19:57:25.780Z,64.47
2023-02-04T20:00:38.896Z,65.11
2023-02-04T20:03:38.851Z,64.97
2023-02-04T20:06:39.779Z,65.21
2023-02-04T20:09:31.061Z,65.64
2023-02-04T20:12:18.754Z,66.10
2023-02-04T20:15:18.981Z,65.24
2023-02-04T20:18:24.537Z,66.02
2023-02-04T20:21:11.509Z,65.94
2023-02-04T20:23:58.210Z,66.25
2023-02-04T20:26:44.675Z,65.91
2023-02-04T20:29:37.416Z,66.34
2023-02-04T20:32:29.718Z,66.61
2023-02-04T20:35:22.359Z,66.98
2023-02-04T20:38:18.749Z,67.17
2023-02-04T20:41:19.358Z,67.74
2023-02-04T20:44:27.794Z,68.03
2023-02-04T20:47:44.266Z,67.74
2023-02-04T20:50:38.558Z,68.79
2023-02-04T20:54:09.361Z,69.13
2023-02-04T20:57:07.303Z,70.10
2023-02-04T20:59:54.724Z,70.44
2023-02-04T21:02:41.560Z,70.92
2023-02-04T21:05:30.152Z,70.44
2023-02-04T21:08:34.633Z,71.45
2023-02-04T21:11:25.775Z,71.76
2023-02-04T21:14:25.801Z,71.63
2023-02-04T21:17:14.777Z,72.57
2023-02-04T21:20:04.766Z,73.13
2023-02-04T21:22:57.896Z,72.87
2023-02-04T21:25:46.350Z,73.85
2023-02-04T21:28:35.338Z,73.92
2023-02-04T21:31:23.309Z,74.65
2023-02-04T21:34:14.489Z,74.98
2023-02-04T21:37:02.997Z,74.76
2023-02-04T21:39:53.954Z,74.93
2023-02-04T21:42:43.568Z,75.63
2023-02-04T21:45:32.410Z,75.60
2023-02-04T21:48:20.572Z,75.75
2023-02-04T21:51:10.397Z,75.96
2023-02-04T21:53:56.290Z,75.86
2023-02-04T21:56:41.825Z,75.29
2023-02-04T21:59:27.814Z,75.69
2023-02-04T22:02:14.510Z,76.08
2023-02-04T22:05:00.045Z,76.33
2023-02-04T22:07:45.500Z,76.00
2023-02-04T22:10:31.712Z,75.30
2023-02-04T22:13:17.924Z,76.07
2023-02-04T22:16:06.086Z,75.63
2023-02-04T22:18:53.060Z,75.54
2023-02-04T22:21:38.527Z,76.38
2023-02-04T22:24:23.964Z,76.03
2023-02-04T22:27:09.555Z,76.05
2023-02-04T22:29:57.227Z,76.52
2023-02-04T22:32:44.354Z,76.47
2023-02-04T22:35:38.136Z,76.02
2023-02-04T22:38:24.696Z,76.54
2023-02-04T22:41:13.940Z,77.07
2023-02-04T22:44:08.131Z,77.05
2023-02-04T22:46:54.223Z,77.38
2023-02-04T22:49:40.640Z,76.83
2023-02-04T22:52:26.410Z,78.11
2023-02-04T22:55:16.497Z,78.34
2023-02-04T22:58:05.231Z,78.72
2023-02-04T23:00:54.851Z,78.83
2023-02-04T23:03:42.371Z,78.67
2023-02-04T23:06:29.931Z,79.41
2023-02-04T23:09:23.542Z,78.76
2023-02-04T23:12:15.011Z,79.33
2023-02-04T23:15:00.621Z,79.29
2023-02-04T23:17:49.626Z,79.00
2023-02-04T23:20:42.808Z,79.09
2023-02-04T23:23:31.625Z,79.00
2023-02-04T23:26:21.223Z,78.82
2023-02-04T23:29:09.774Z,78.75
2023-02-04T23:31:56.727Z,78.40
2023-02-04T23:34:42.553Z,78.73
2023-02-04T23:37:28.736Z,79.09
2023-02-04T23:40:14.372Z,79.48
2023-02-04T23:42:59.844Z,78.84
2023-02-04T23:45:46.009Z,79.58
2023-02-04T23:48:34.196Z,79.90
2023-02-04T23:51:19.549Z,79.89
2023-02-04T23:54:05.457Z,79.71
2023-02-04T23:56:52.076Z,79.47
2023-02-04T23:59:42.102Z,79.58
